createdAt,value
2022-11-24T00:01:19.860Z,12.71
2022-11-24T00:04:03.175Z,12.71
2022-11-24T00:06:33.510Z,12.67
2022-11-24T00:09:02.394Z,12.67
2022-11-24T00:11:32.718Z,12.68
2022-11-24T00:14:00.518Z,12.67
2022-11-24T00:16:36.632Z,12.67
2022-11-24T00:19:09.013Z,12.70
2022-11-24T00:21:37.638Z,12.68
2022-11-24T00:24:04.843Z,12.66
2022-11-24T00:26:34.568Z,12.66
2022-11-24T00:29:05.187Z,12.65
2022-11-24T00:31:41.705Z,12.64
2022-11-24T00:34:12.774Z,12.65
2022-11-24T00:36:40.545Z,12.65
2022-11-24T00:39:12.069Z,12.66
2022-11-24T00:41:39.025Z,12.66
2022-11-24T00:44:06.491Z,12.67
2022-11-24T00:46:34.620Z,12.67
2022-11-24T00:49:01.638Z,12.67
2022-11-24T00:51:32.515Z,12.66
2022-11-24T00:54:01.178Z,12.66
2022-11-24T00:56:29.827Z,12.65
2022-11-24T00:58:57.340Z,12.63
2022-11-24T01:01:29.064Z,12.62
2022-11-24T01:03:56.530Z,12.60
2022-11-24T01:06:26.496Z,12.62
2022-11-24T01:08:54.130Z,12.61
2022-11-24T01:11:54.696Z,12.61
2022-11-24T01:14:24.580Z,12.58
2022-11-24T01:16:51.695Z,12.58
2022-11-24T01:19:18.701Z,12.58
2022-11-24T01:21:46.020Z,12.59
2022-11-24T01:24:13.301Z,12.57
2022-11-24T01:26:41.401Z,12.56
2022-11-24T01:29:10.388Z,12.57
2022-11-24T01:31:37.247Z,12.56
2022-11-24T01:34:04.104Z,12.56
2022-11-24T01:36:30.839Z,12.57
2022-11-24T01:38:57.566Z,12.57
2022-11-24T01:41:26.003Z,12.58
2022-11-24T01:43:55.187Z,12.59
2022-11-24T01:46:36.215Z,12.59
2022-11-24T01:49:08.504Z,12.57
2022-11-24T01:52:06.535Z,12.57
2022-11-24T01:54:40.150Z,12.58
2022-11-24T01:57:29.688Z,12.56
2022-11-24T02:00:10.813Z,12.59
2022-11-24T02:02:38.285Z,12.60
2022-11-24T02:05:28.698Z,12.63
2022-11-24T02:08:00.474Z,12.66
2022-11-24T02:10:27.386Z,12.64
2022-11-24T02:12:57.551Z,12.70
2022-11-24T02:15:25.237Z,12.72
2022-11-24T02:17:51.972Z,12.72
2022-11-24T02:20:18.930Z,12.74
2022-11-24T02:23:20.670Z,12.75
2022-11-24T02:26:16.203Z,12.72
2022-11-24T02:28:43.113Z,12.71
2022-11-24T02:31:10.525Z,12.68
2022-11-24T02:33:38.122Z,12.70
2022-11-24T02:36:05.150Z,12.72
2022-11-24T02:38:35.124Z,12.71
2022-11-24T02:41:09.044Z,12.72
2022-11-24T02:43:45.381Z,12.71
2022-11-24T02:46:12.345Z,12.70
2022-11-24T02:48:39.389Z,12.68
2022-11-24T02:51:06.245Z,12.67
2022-11-24T02:53:32.960Z,12.67
2022-11-24T02:55:59.728Z,12.67
2022-11-24T02:58:26.568Z,12.69
2022-11-24T03:00:54.384Z,12.72
2022-11-24T03:03:21.848Z,12.73
2022-11-24T03:05:48.698Z,12.77
2022-11-24T03:08:15.750Z,12.79
2022-11-24T03:10:42.503Z,12.80
2022-11-24T03:13:09.301Z,12.82
2022-11-24T03:15:36.728Z,12.84
2022-11-24T03:18:04.095Z,12.82
2022-11-24T03:20:30.896Z,12.83
2022-11-24T03:22:57.639Z,12.83
2022-11-24T03:25:24.484Z,12.81
2022-11-24T03:27:51.165Z,12.82
2022-11-24T03:30:18.102Z,12.84
2022-11-24T03:32:44.871Z,12.81
2022-11-24T03:35:12.066Z,12.82
2022-11-24T03:37:38.753Z,12.83
2022-11-24T03:40:06.458Z,12.85
2022-11-24T03:42:33.272Z,12.86
2022-11-24T03:45:16.669Z,12.88
2022-11-24T03:47:51.692Z,12.88
2022-11-24T03:50:18.447Z,12.89
2022-11-24T03:52:45.173Z,12.90
2022-11-24T03:55:11.877Z,12.93
2022-11-24T03:57:38.621Z,12.94
2022-11-24T04:00:06.747Z,12.96
2022-11-24T04:02:33.531Z,13.01
2022-11-24T04:05:00.318Z,13.04
2022-11-24T04:07:27.112Z,13.07
2022-11-24T04:09:53.818Z,13.11
2022-11-24T04:12:39.184Z,13.15
2022-11-24T04:15:06.519Z,13.18
2022-11-24T04:17:33.228Z,13.22
2022-11-24T04:19:59.921Z,13.24
2022-11-24T04:22:26.631Z,13.30
2022-11-24T04:24:53.408Z,13.33
2022-11-24T04:27:20.178Z,13.36
2022-11-24T04:29:46.889Z,13.39
2022-11-24T04:32:13.595Z,13.42
2022-11-24T04:34:40.325Z,13.44
2022-11-24T04:37:07.034Z,13.47
2022-11-24T04:39:33.950Z,13.49
2022-11-24T04:42:00.871Z,13.50
2022-11-24T04:44:27.671Z,13.53
2022-11-24T04:46:54.752Z,13.54
2022-11-24T04:49:22.448Z,13.53
2022-11-24T04:51:49.507Z,13.53
2022-11-24T04:54:16.869Z,13.54
2022-11-24T04:56:44.760Z,13.53
2022-11-24T04:59:15.119Z,13.46
2022-11-24T05:02:27.130Z,13.30
2022-11-24T05:07:39.317Z,12.96
2022-11-24T05:13:47.668Z,12.83
2022-11-24T05:16:48.530Z,12.76
2022-11-24T05:27:42.978Z,12.40
2022-11-24T05:30:11.757Z,12.22
2022-11-24T05:32:39.071Z,12.18
2022-11-24T05:35:06.661Z,12.15
2022-11-24T05:37:33.379Z,12.14
2022-11-24T05:40:00.062Z,12.11
2022-11-24T05:42:46.561Z,12.14
2022-11-24T05:45:18.719Z,12.11
2022-11-24T05:47:46.295Z,12.11
2022-11-24T05:50:16.755Z,12.08
2022-11-24T05:52:43.721Z,12.08
2022-11-24T05:55:11.577Z,12.04
2022-11-24T05:57:38.455Z,11.99
2022-11-24T06:00:07.953Z,11.97
2022-11-24T06:02:35.125Z,11.95
2022-11-24T06:05:02.001Z,11.90
2022-11-24T06:07:28.795Z,11.87
2022-11-24T06:09:55.547Z,11.83
2022-11-24T06:12:22.266Z,11.79
2022-11-24T06:14:48.987Z,11.79
2022-11-24T06:17:15.691Z,11.76
2022-11-24T06:19:45.444Z,11.75
2022-11-24T06:22:12.565Z,11.73
2022-11-24T06:24:39.296Z,11.71
2022-11-24T06:27:06.711Z,11.70
2022-11-24T06:29:33.415Z,11.67
2022-11-24T06:32:00.225Z,11.63
2022-11-24T06:34:27.135Z,11.62
2022-11-24T06:36:53.941Z,11.58
2022-11-24T06:39:20.668Z,11.54
2022-11-24T06:41:50.684Z,11.50
2022-11-24T06:44:18.198Z,11.44
2022-11-24T06:46:49.970Z,11.41
2022-11-24T06:49:16.984Z,11.36
2022-11-24T07:19:42.251Z,11.05
2022-11-24T07:22:55.935Z,11.15
2022-11-24T07:30:39.709Z,11.29
2022-11-24T07:33:44.360Z,11.32
2022-11-24T07:38:02.701Z,11.43
2022-11-24T07:49:29.442Z,11.58
2022-11-24T07:51:56.212Z,11.67
2022-11-24T07:54:25.961Z,11.76
2022-11-24T07:56:56.102Z,11.85
2022-11-24T07:59:23.067Z,11.92
2022-11-24T08:01:55.120Z,12.02
2022-11-24T08:04:22.065Z,12.21
2022-11-24T08:06:48.797Z,12.38
2022-11-24T08:09:15.530Z,12.56
2022-11-24T08:11:43.493Z,12.68
2022-11-24T08:17:29.318Z,12.77
2022-11-24T08:19:56.143Z,12.85
2022-11-24T08:22:27.869Z,12.97
2022-11-24T08:24:54.576Z,13.15
2022-11-24T08:27:32.370Z,13.37
2022-11-24T08:35:18.911Z,14.31
2022-11-24T08:37:50.869Z,14.79
2022-11-24T08:40:18.134Z,15.00
2022-11-24T08:42:55.100Z,15.07
2022-11-24T08:45:56.912Z,15.06
2022-11-24T08:48:23.969Z,14.95
2022-11-24T08:50:50.790Z,14.84
2022-11-24T08:55:47.373Z,14.69
2022-11-24T08:58:15.119Z,14.64
2022-11-24T09:00:42.634Z,14.58
2022-11-24T09:03:12.969Z,14.54
2022-11-24T09:05:55.209Z,14.53
2022-11-24T09:08:22.049Z,14.51
2022-11-24T09:10:49.478Z,14.47
2022-11-24T09:13:16.351Z,14.48
2022-11-24T09:15:43.517Z,14.46
2022-11-24T09:18:10.646Z,14.68
2022-11-24T09:20:37.641Z,15.09
2022-11-24T09:23:05.174Z,15.62
2022-11-24T09:25:32.247Z,16.19
2022-11-24T09:28:00.151Z,16.74
2022-11-24T09:30:27.630Z,17.32
2022-11-24T09:32:56.801Z,17.84
2022-11-24T09:35:24.673Z,18.35
2022-11-24T09:37:52.217Z,18.87
2022-11-24T09:40:19.394Z,19.45
2022-11-24T09:43:15.796Z,20.15
2022-11-24T09:46:12.311Z,20.74
2022-11-24T09:48:46.473Z,21.14
2022-11-24T09:51:15.931Z,21.43
2022-11-24T09:53:55.139Z,21.70
2022-11-24T09:56:29.868Z,21.99
2022-11-24T09:59:15.655Z,22.23
2022-11-24T10:01:47.079Z,22.44
2022-11-24T10:04:30.347Z,22.64
2022-11-24T10:07:22.850Z,22.78
2022-11-24T10:10:17.422Z,22.98
2022-11-24T10:13:20.306Z,23.22
2022-11-24T10:16:14.977Z,23.41
2022-11-24T10:19:15.486Z,23.60
2022-11-24T10:21:54.735Z,23.86
2022-11-24T10:24:52.345Z,24.02
2022-11-24T10:27:31.525Z,24.15
2022-11-24T10:30:01.289Z,24.30
2022-11-24T10:32:40.980Z,24.46
2022-11-24T10:35:28.152Z,24.68
2022-11-24T10:38:16.730Z,24.90
2022-11-24T10:40:57.448Z,25.01
2022-11-24T10:43:30.465Z,25.10
2022-11-24T10:46:23.186Z,25.23
2022-11-24T10:49:55.161Z,25.40
2022-11-24T10:52:26.311Z,25.60
2022-11-24T10:55:05.618Z,25.71
2022-11-24T10:57:40.485Z,25.75
2022-11-24T11:00:35.760Z,25.72
2022-11-24T11:03:22.088Z,25.72
2022-11-24T11:06:18.280Z,25.74
2022-11-24T11:08:50.743Z,25.85
2022-11-24T11:11:35.683Z,25.90
2022-11-24T11:14:08.338Z,25.93
2022-11-24T11:21:33.470Z,25.32
2022-11-24T11:24:04.342Z,25.01
2022-11-24T11:26:38.341Z,24.68
2022-11-24T11:35:01.363Z,24.00
2022-11-24T11:37:32.804Z,23.88
2022-11-24T11:40:00.311Z,23.76
2022-11-24T11:43:00.748Z,23.68
2022-11-24T11:45:40.156Z,23.57
2022-11-24T11:48:43.688Z,23.52
2022-11-24T11:51:47.725Z,23.52
2022-11-24T11:54:32.399Z,23.46
2022-11-24T11:57:11.732Z,23.39
2022-11-24T12:00:05.615Z,23.26
2022-11-24T12:02:41.526Z,23.10
2022-11-24T12:05:32.605Z,22.88
2022-11-24T12:08:29.393Z,22.60
2022-11-24T12:11:42.669Z,22.32
2022-11-24T12:15:10.481Z,21.91
2022-11-24T12:18:55.130Z,21.50
2022-11-24T12:21:28.433Z,21.10
2022-11-24T12:24:36.766Z,20.77
2022-11-24T12:27:38.018Z,20.52
2022-11-24T12:30:14.440Z,20.27
2022-11-24T12:33:29.224Z,20.00
2022-11-24T12:36:31.397Z,19.73
2022-11-24T12:39:10.392Z,19.56
2022-11-24T12:41:56.766Z,19.44
2022-11-24T12:44:58.856Z,19.26
2022-11-24T12:48:03.674Z,19.08
2022-11-24T12:50:37.407Z,18.99
2022-11-24T12:53:14.875Z,18.93
2022-11-24T12:55:43.698Z,18.88
2022-11-24T12:58:31.012Z,18.80
2022-11-24T13:01:16.752Z,18.73
2022-11-24T13:04:13.072Z,18.60
2022-11-24T13:06:58.449Z,18.49
2022-11-24T13:09:25.174Z,18.41
2022-11-24T13:12:15.752Z,18.28
2022-11-24T13:14:45.963Z,18.20
2022-11-24T13:17:39.616Z,18.06
2022-11-24T13:20:19.296Z,17.92
2022-11-24T13:23:00.327Z,17.80
2022-11-24T13:25:33.986Z,17.66
2022-11-24T13:28:03.812Z,17.54
2022-11-24T13:30:33.553Z,17.44
2022-11-24T13:33:25.785Z,17.37
2022-11-24T13:36:03.974Z,17.24
2022-11-24T13:38:46.007Z,17.16
2022-11-24T13:41:31.797Z,17.05
2022-11-24T13:44:13.614Z,16.94
2022-11-24T13:47:06.507Z,16.84
2022-11-24T13:49:53.627Z,16.74
2022-11-24T13:52:41.582Z,16.65
2022-11-24T13:55:14.130Z,16.60
2022-11-24T13:57:45.189Z,16.56
2022-11-24T14:00:27.674Z,16.51
2022-11-24T14:03:19.560Z,16.44
2022-11-24T14:05:51.254Z,16.40
2022-11-24T14:08:31.236Z,16.35
2022-11-24T14:11:01.451Z,16.30
2022-11-24T14:13:32.124Z,16.26
2022-11-24T14:16:09.309Z,16.22
2022-11-24T14:18:42.622Z,16.20
2022-11-24T14:21:41.316Z,16.16
2022-11-24T14:24:39.817Z,16.09
2022-11-24T14:27:16.538Z,16.07
2022-11-24T14:30:01.364Z,16.02
2022-11-24T14:32:29.043Z,16.00
2022-11-24T14:34:56.954Z,15.97
2022-11-24T14:37:23.893Z,15.97
2022-11-24T14:39:50.658Z,15.92
2022-11-24T14:42:21.922Z,15.93
2022-11-24T14:45:00.954Z,15.91
2022-11-24T14:47:32.659Z,15.88
2022-11-24T14:50:16.165Z,15.84
2022-11-24T14:52:56.310Z,15.80
2022-11-24T14:55:32.209Z,15.78
2022-11-24T14:58:00.001Z,15.74
2022-11-24T15:00:32.632Z,15.69
2022-11-24T15:03:02.463Z,15.64
2022-11-24T15:05:52.525Z,15.59
2022-11-24T15:08:19.747Z,15.52
2022-11-24T15:10:47.253Z,15.47
2022-11-24T15:13:24.040Z,15.43
2022-11-24T15:16:02.909Z,15.37
2022-11-24T15:18:44.878Z,15.30
2022-11-24T15:21:18.828Z,15.23
2022-11-24T15:24:06.381Z,15.12
2022-11-24T15:26:41.992Z,15.06
2022-11-24T15:29:10.998Z,15.00
2022-11-24T15:31:39.628Z,14.95
2022-11-24T15:34:07.246Z,14.88
2022-11-24T15:36:33.958Z,14.83
2022-11-24T15:39:00.693Z,14.77
2022-11-24T15:44:13.600Z,14.61
2022-11-24T15:46:40.454Z,14.54
2022-11-24T15:49:07.427Z,14.49
2022-11-24T15:51:35.868Z,14.43
2022-11-24T15:54:02.791Z,14.37
2022-11-24T15:56:32.925Z,14.31
2022-11-24T15:59:00.914Z,14.24
2022-11-24T16:01:34.317Z,14.19
2022-11-24T16:04:02.416Z,14.12
2022-11-24T16:06:29.531Z,14.05
2022-11-24T16:08:58.073Z,14.01
2022-11-24T16:11:25.227Z,13.97
2022-11-24T16:13:53.702Z,13.88
2022-11-24T16:16:22.911Z,13.83
2022-11-24T16:18:50.515Z,13.75
2022-11-24T16:21:17.204Z,13.69
2022-11-24T16:23:43.966Z,13.64
2022-11-24T16:26:10.711Z,13.57
2022-11-24T16:28:37.488Z,13.50
2022-11-24T16:31:04.321Z,13.44
2022-11-24T16:33:32.664Z,13.36
2022-11-24T16:35:59.363Z,13.26
2022-11-24T16:38:26.068Z,13.20
2022-11-24T16:40:56.173Z,13.16
2022-11-24T16:43:24.360Z,13.14
2022-11-24T16:46:09.199Z,13.10
2022-11-24T16:48:36.887Z,13.07
2022-11-24T16:51:09.972Z,13.03
2022-11-24T16:53:37.327Z,12.99
2022-11-24T16:56:04.347Z,12.95
2022-11-24T16:58:31.083Z,12.90
2022-11-24T17:01:13.292Z,12.85
2022-11-24T17:03:40.789Z,12.78
2022-11-24T17:06:11.595Z,12.74
2022-11-24T17:08:40.605Z,12.67
2022-11-24T17:11:16.537Z,12.64
2022-11-24T17:13:45.520Z,12.61
2022-11-24T17:16:17.106Z,12.54
2022-11-24T17:18:44.270Z,12.49
2022-11-24T17:21:17.993Z,12.45
2022-11-24T17:23:45.135Z,12.43
2022-11-24T17:26:15.412Z,12.39
2022-11-24T17:28:42.946Z,12.37
2022-11-24T17:31:27.167Z,12.34
2022-11-24T17:33:57.414Z,12.32
2022-11-24T17:36:25.813Z,12.31
2022-11-24T17:38:52.919Z,12.31
2022-11-24T17:41:22.386Z,12.30
2022-11-24T17:43:57.736Z,12.29
2022-11-24T17:46:27.317Z,12.27
2022-11-24T17:48:54.640Z,12.28
2022-11-24T17:51:24.961Z,12.30
2022-11-24T17:53:54.140Z,12.32
2022-11-24T17:56:27.124Z,12.33
2022-11-24T17:58:57.063Z,12.37
2022-11-24T18:01:24.709Z,12.39
2022-11-24T18:03:53.660Z,12.42
2022-11-24T18:06:24.944Z,12.43
2022-11-24T18:08:53.023Z,12.42
2022-11-24T18:11:31.721Z,12.44
2022-11-24T18:14:02.702Z,12.42
2022-11-24T18:16:34.823Z,12.45
2022-11-24T18:19:09.152Z,12.47
2022-11-24T18:21:41.265Z,12.48
2022-11-24T18:24:11.642Z,12.47
2022-11-24T18:26:40.327Z,12.48
2022-11-24T18:29:07.784Z,12.47
2022-11-24T18:31:35.958Z,12.47
2022-11-24T18:34:05.401Z,12.44
2022-11-24T18:36:32.720Z,12.42
2022-11-24T18:39:05.774Z,12.40
2022-11-24T18:41:33.404Z,12.38
2022-11-24T18:44:07.667Z,12.35
2022-11-24T18:46:34.735Z,12.30
2022-11-24T18:49:01.492Z,12.26
2022-11-24T18:51:28.639Z,12.21
2022-11-24T18:53:57.819Z,12.21
2022-11-24T18:56:25.219Z,12.19
2022-11-24T18:58:54.493Z,12.14
2022-11-24T19:01:25.490Z,12.13
2022-11-24T19:04:01.893Z,12.11
2022-11-24T19:06:35.049Z,12.09
2022-11-24T19:09:07.525Z,12.06
2022-11-24T19:11:39.108Z,12.03
2022-11-24T19:14:08.639Z,11.99
2022-11-24T19:16:36.272Z,11.95
2022-11-24T19:19:03.873Z,11.93
2022-11-24T19:21:33.989Z,11.90
2022-11-24T19:24:04.835Z,11.88
2022-11-24T19:26:34.995Z,11.83
2022-11-24T19:29:03.019Z,11.80
2022-11-24T19:31:29.938Z,11.76
2022-11-24T19:33:58.574Z,11.73
2022-11-24T19:36:26.192Z,11.73
2022-11-24T19:38:56.255Z,11.71
2022-11-24T19:41:29.108Z,11.68
2022-11-24T19:43:57.859Z,11.66
2022-11-24T19:46:27.908Z,11.66
2022-11-24T19:48:58.603Z,11.65
2022-11-24T19:51:32.670Z,11.64
2022-11-24T19:54:00.554Z,11.64
2022-11-24T19:56:31.252Z,11.63
2022-11-24T19:58:58.125Z,11.61
2022-11-24T20:01:43.982Z,11.61
2022-11-24T20:04:37.854Z,11.60
2022-11-24T20:33:15.673Z,11.54
2022-11-24T21:04:16.211Z,11.81
2022-11-24T21:06:43.054Z,11.91
2022-11-24T21:09:10.339Z,12.01
2022-11-24T21:11:38.841Z,12.09
2022-11-24T21:14:08.371Z,12.16
2022-11-24T21:16:38.703Z,12.22
2022-11-24T21:19:13.172Z,12.28
2022-11-24T21:21:42.460Z,12.34
2022-11-24T21:24:17.545Z,12.39
2022-11-24T21:26:51.175Z,12.44
2022-11-24T21:29:21.745Z,12.48
2022-11-24T21:31:48.695Z,12.52
2022-11-24T21:34:18.833Z,12.57
2022-11-24T21:36:46.220Z,12.60
2022-11-24T21:39:15.293Z,12.63
2022-11-24T21:41:43.462Z,12.65
2022-11-24T21:44:13.719Z,12.65
2022-11-24T21:46:45.977Z,12.66
2022-11-24T21:49:16.237Z,12.65
2022-11-24T21:51:42.987Z,12.64
2022-11-24T21:54:15.797Z,12.65
2022-11-24T21:56:44.422Z,12.66
2022-11-24T21:59:11.299Z,12.67
2022-11-24T22:01:38.248Z,12.71
2022-11-24T22:04:05.273Z,12.74
2022-11-24T22:06:33.222Z,12.76
2022-11-24T22:09:00.028Z,12.76
2022-11-24T22:11:26.962Z,12.79
2022-11-24T22:13:53.828Z,12.79
2022-11-24T22:16:23.936Z,12.78
2022-11-24T22:18:51.462Z,12.81
2022-11-24T22:21:25.530Z,12.80
2022-11-24T22:23:53.174Z,12.78
2022-11-24T22:26:23.155Z,12.80
2022-11-24T22:28:50.692Z,12.78
2022-11-24T22:31:21.634Z,12.79
2022-11-24T22:33:49.693Z,12.77
2022-11-24T22:36:20.640Z,12.76
2022-11-24T22:38:52.313Z,12.76
2022-11-24T22:41:19.125Z,12.75
2022-11-24T22:43:47.016Z,12.74
2022-11-24T22:46:17.024Z,12.74
2022-11-24T22:48:45.636Z,12.74
2022-11-24T22:51:18.917Z,12.76
2022-11-24T22:53:54.713Z,12.76
2022-11-24T22:56:22.182Z,12.78
2022-11-24T22:58:49.670Z,12.79
2022-11-24T23:01:23.594Z,12.81
2022-11-24T23:03:54.231Z,12.84
2022-11-24T23:06:24.738Z,12.84
2022-11-24T23:08:52.627Z,12.87
2022-11-24T23:11:30.753Z,12.91
2022-11-24T23:14:02.651Z,12.92
2022-11-24T23:16:30.128Z,12.99
2022-11-24T23:18:57.425Z,13.02
2022-11-24T23:21:30.885Z,13.07
2022-11-24T23:24:01.412Z,13.10
2022-11-24T23:26:32.033Z,13.15
2022-11-24T23:28:59.228Z,13.20
2022-11-24T23:31:28.770Z,13.23
2022-11-24T23:34:02.343Z,13.27
2022-11-24T23:36:30.432Z,13.30
2022-11-24T23:39:04.593Z,13.32
2022-11-24T23:41:31.913Z,13.34
2022-11-24T23:43:58.750Z,13.36
2022-11-24T23:46:27.244Z,13.39
2022-11-24T23:48:55.295Z,13.39
2022-11-24T23:51:30.984Z,13.39
2022-11-24T23:53:59.947Z,13.38
2022-11-24T23:56:32.770Z,13.38
2022-11-24T23:59:01.970Z,13.38
